Time;durP1;ratioP1;P1;durP2;ratioP2;P2;SDS_P1;SDS_P2;PMS_P1;PMS_P2;Temp;Humidity;BMP_temperature;BMP_pressure;BME280_temperature;BME280_humidity;BME280_pressure;Samples;Min_cycle;Max_cycle;Signal;HPM_P1;HPM_P2
2022/04/15 12:07:19;;;;;;;6.07;4.80;;;;;;;-143.76;100.00;61248.72;4992873;28;20471;-74
2022/04/15 12:09:46;;;;;;;5.77;5.20;;;;;;;-143.76;100.00;61248.72;4994845;28;20691;-74
2022/04/15 12:12:11;;;;;;;5.90;4.33;;;;;;;-143.76;100.00;61248.72;4997944;28;20462;-75
2022/04/15 12:14:39;;;;;;;5.40;4.90;;;;;;;-143.76;100.00;61248.72;4997809;28;20473;-74
2022/04/15 12:17:09;;;;;;;7.20;4.17;;;;;;;-143.76;100.00;61248.72;5000397;28;20223;-74
2022/04/15 12:19:39;;;;;;;4.90;4.50;;;;;;;-143.76;100.00;61248.72;4998599;28;21078;-74
2022/04/15 12:22:07;;;;;;;4.47;4.07;;;;;;;-143.76;100.00;61248.72;4991819;28;21009;-74
2022/04/15 12:24:32;;;;;;;5.67;4.63;;;;;;;-143.76;100.00;61248.72;4977049;28;21147;-74
2022/04/15 12:27:01;;;;;;;6.30;4.50;;;;;;;-143.76;100.00;61248.72;4997512;28;20498;-74
2022/04/15 12:29:47;;;;;;;5.50;5.00;;;;;;;-143.76;100.00;61248.72;4999357;28;20261;-74
2022/04/15 12:32:34;;;;;;;8.27;5.70;;;;;;;-143.76;100.00;61248.72;4996646;28;20463;-74
2022/04/15 12:35:00;;;;;;;5.30;4.43;;;;;;;-143.76;100.00;61248.72;4989429;28;20445;-74
2022/04/15 12:37:53;;;;;;;4.80;4.13;;;;;;;-143.76;100.00;61248.72;4997816;28;21002;-74
2022/04/15 12:40:22;;;;;;;6.60;6.00;;;;;;;-143.76;100.00;61248.72;4999543;28;20221;-74
2022/04/15 12:42:53;;;;;;;4.40;4.00;;;;;;;-143.76;100.00;61248.72;4996849;28;20936;-74
2022/04/15 12:45:23;;;;;;;5.00;4.27;;;;;;;-143.76;100.00;61248.72;4997318;28;20463;-74
2022/04/15 12:48:01;;;;;;;5.40;4.23;;;;;;;-143.76;100.00;61248.72;4999249;28;20786;-74
2022/04/15 12:50:31;;;;;;;3.33;3.03;;;;;;;-143.76;100.00;61248.72;4981424;28;20463;-74
2022/04/15 12:52:58;;;;;;;5.07;4.00;;;;;;;-143.76;100.00;61248.72;4997846;28;20458;-74
2022/04/15 12:55:32;;;;;;;6.17;4.50;;;;;;;-143.76;100.00;61248.72;4995871;28;20454;-74
2022/04/15 12:57:59;;;;;;;4.40;4.00;;;;;;;-143.76;100.00;61248.72;4997995;28;21191;-74
2022/04/15 13:00:27;;;;;;;3.70;3.30;;;;;;;-143.76;100.00;61248.72;4998729;28;20773;-74
2022/04/15 13:02:52;;;;;;;3.93;3.60;;;;;;;-143.76;100.00;61248.72;4997934;28;20535;-74
2022/04/15 13:05:18;;;;;;;3.33;3.13;;;;;;;-143.76;100.00;61248.72;4998166;28;20918;-74
2022/04/15 13:07:44;;;;;;;4.10;3.70;;;;;;;-143.76;100.00;61248.72;4996904;28;20227;-74
2022/04/15 13:10:11;;;;;;;3.93;3.53;;;;;;;-143.76;100.00;61248.72;4993717;28;20767;-74
2022/04/15 13:12:37;;;;;;;3.10;2.90;;;;;;;-143.76;100.00;61248.72;4998969;28;20195;-74
2022/04/15 13:15:03;;;;;;;3.43;2.87;;;;;;;-143.76;100.00;61248.72;4996638;28;20457;-75
2022/04/15 13:17:29;;;;;;;3.60;3.30;;;;;;;-143.76;100.00;61248.72;4996872;28;20219;-74
2022/04/15 13:19:54;;;;;;;4.00;3.60;;;;;;;-143.76;100.00;61248.72;4996577;28;20808;-74
2022/04/15 13:22:20;;;;;;;4.13;3.73;;;;;;;-143.76;100.00;61248.72;4995161;28;20985;-74
2022/04/15 13:24:45;;;;;;;4.40;2.60;;;;;;;-143.76;100.00;61248.72;4998711;28;20299;-74
2022/04/15 13:27:11;;;;;;;2.60;2.40;;;;;;;-143.76;100.00;61248.72;4997175;28;20303;-74
2022/04/15 13:29:37;;;;;;;6.23;3.20;;;;;;;-143.76;100.00;61248.72;4995822;28;20203;-74
2022/04/15 13:32:04;;;;;;;3.23;2.40;;;;;;;-143.76;100.00;61248.72;4995084;28;20455;-74
2022/04/15 13:34:35;;;;;;;2.70;2.50;;;;;;;-143.76;100.00;61248.72;4997175;28;20695;-74
2022/04/15 13:37:03;;;;;;;3.33;3.03;;;;;;;-143.76;100.00;61248.72;4996200;28;20544;-74
2022/04/15 13:39:29;;;;;;;2.83;2.63;;;;;;;-143.76;100.00;61248.72;4996254;28;20463;-74
2022/04/15 13:41:56;;;;;;;3.40;2.40;;;;;;;-143.76;100.00;61248.72;4992167;28;20598;-74
2022/04/15 13:44:21;;;;;;;3.33;2.97;;;;;;;-143.76;100.00;61248.72;4997074;28;21089;-74
2022/04/15 13:46:46;;;;;;;2.77;2.57;;;;;;;-143.76;100.00;61248.72;4997877;28;20446;-74
2022/04/15 13:49:12;;;;;;;3.90;2.87;;;;;;;-143.76;100.00;61248.72;5001104;28;20206;-74
2022/04/15 13:51:38;;;;;;;3.00;2.63;;;;;;;-143.76;100.00;61248.72;5001410;28;20273;-74
2022/04/15 13:56:47;;;;;;;4.33;3.13;;;;;;;-143.76;100.00;61248.72;5002069;28;20796;-75
2022/04/15 13:59:14;;;;;;;6.30;3.00;;;;;;;-143.76;100.00;61248.72;5001013;28;20494;-74
2022/04/15 14:01:42;;;;;;;4.10;3.80;;;;;;;-143.76;100.00;61248.72;5002551;28;20203;-74
2022/04/15 14:04:12;;;;;;;6.20;3.03;;;;;;;-143.76;100.00;61248.72;5001461;28;20470;-74
2022/04/15 14:06:38;;;;;;;4.27;3.87;;;;;;;-143.76;100.00;61248.72;5000599;28;20546;-74
2022/04/15 14:09:05;;;;;;;3.60;3.30;;;;;;;-143.76;100.00;61248.72;5002344;28;20848;-74
2022/04/15 14:11:34;;;;;;;3.10;2.80;;;;;;;-143.76;100.00;61248.72;5003217;28;20481;-75
2022/04/15 14:14:04;;;;;;;3.60;3.30;;;;;;;-143.76;100.00;61248.72;5002634;28;20513;-75
2022/04/15 14:16:29;;;;;;;3.97;3.20;;;;;;;-143.76;100.00;61248.72;4983834;28;20479;-74
2022/04/15 14:18:56;;;;;;;3.50;3.20;;;;;;;-143.76;100.00;61248.72;4985566;28;20478;-74
2022/04/15 14:21:21;;;;;;;2.93;2.73;;;;;;;-143.76;100.00;61248.72;5002266;28;20228;-74
2022/04/15 14:23:47;;;;;;;3.40;2.83;;;;;;;-143.76;100.00;61248.72;5002068;28;20514;-74
2022/04/15 14:26:13;;;;;;;4.07;2.83;;;;;;;-143.76;100.00;61248.72;5002382;28;20594;-75
2022/04/15 14:28:39;;;;;;;4.20;3.30;;;;;;;-143.76;100.00;61248.72;5001632;28;20310;-75
2022/04/15 14:31:05;;;;;;;3.63;3.33;;;;;;;-143.76;100.00;61248.72;5003240;28;20613;-74
2022/04/15 14:33:39;;;;;;;2.97;2.67;;;;;;;-143.76;100.00;61248.72;5001671;28;20208;-74
2022/04/15 14:36:06;;;;;;;3.27;2.97;;;;;;;-143.76;100.00;61248.72;4998515;28;20475;-75
2022/04/15 14:38:36;;;;;;;5.37;2.97;;;;;;;-143.76;100.00;61248.72;5000343;28;20470;-75
2022/04/15 14:41:04;;;;;;;2.77;2.57;;;;;;;-143.76;100.00;61248.72;5001629;28;20437;-75
2022/04/15 14:43:31;;;;;;;3.17;2.37;;;;;;;-143.76;100.00;61248.72;5000471;28;21070;-75
2022/04/15 14:45:56;;;;;;;3.03;2.80;;;;;;;-143.76;100.00;61248.72;4974907;28;20480;-75
2022/04/15 14:48:22;;;;;;;3.47;2.73;;;;;;;-143.76;100.00;61248.72;4994373;28;21165;-75
2022/04/15 14:50:48;;;;;;;3.50;3.20;;;;;;;-143.76;100.00;61248.72;5002459;28;20205;-75
2022/04/15 14:53:14;;;;;;;4.67;3.70;;;;;;;-143.76;100.00;61248.72;5000236;28;20494;-75
2022/04/15 14:55:39;;;;;;;3.40;3.10;;;;;;;-143.76;100.00;61248.72;5001269;28;20494;-75
2022/04/15 14:58:05;;;;;;;3.93;3.50;;;;;;;-143.76;100.00;61248.72;5000510;28;20416;-73
2022/04/15 15:00:32;;;;;;;4.57;2.63;;;;;;;-143.76;100.00;61248.72;5002523;28;20291;-75
2022/04/15 15:02:58;;;;;;;3.90;2.90;;;;;;;-143.76;100.00;61248.72;4999715;28;20258;-75
2022/04/15 15:05:24;;;;;;;5.20;2.43;;;;;;;-143.76;100.00;61248.72;5001168;28;20505;-75
2022/04/15 15:07:49;;;;;;;2.77;2.57;;;;;;;-143.76;100.00;61248.72;5003506;28;20478;-75
2022/04/15 15:10:15;;;;;;;2.90;2.60;;;;;;;-143.76;100.00;61248.72;5005487;28;20427;-73
2022/04/15 15:12:41;;;;;;;2.60;2.40;;;;;;;-143.76;100.00;61248.72;5006537;28;20201;-75
2022/04/15 15:15:07;;;;;;;4.23;2.53;;;;;;;-143.76;100.00;61248.72;5004212;28;20734;-75
2022/04/15 15:17:32;;;;;;;4.50;3.30;;;;;;;-143.76;100.00;61248.72;5006133;28;20503;-74
2022/04/15 15:19:58;;;;;;;4.00;3.20;;;;;;;-143.76;100.00;61248.72;5001602;28;21036;-74
2022/04/15 15:22:25;;;;;;;2.83;2.47;;;;;;;-143.76;100.00;61248.72;5004039;28;20232;-74
2022/04/15 15:30:34;;;;;;;2.93;2.70;;;;;;;-143.76;100.00;61248.72;5004595;28;20438;-75
2022/04/15 15:32:59;;;;;;;6.67;3.20;;;;;;;-143.76;100.00;61248.72;5004585;28;20986;-75
2022/04/15 15:35:26;;;;;;;5.40;2.93;;;;;;;-143.76;100.00;61248.72;5005293;28;20543;-75
2022/04/15 15:37:51;;;;;;;3.97;2.50;;;;;;;-143.76;100.00;61248.72;5003734;28;20212;-75
2022/04/15 15:40:19;;;;;;;3.70;3.40;;;;;;;-143.76;100.00;61248.72;5000824;28;20923;-75
2022/04/15 15:42:44;;;;;;;4.70;3.23;;;;;;;-143.76;100.00;61248.72;4991812;28;20602;-75
2022/04/15 15:45:09;;;;;;;3.53;3.23;;;;;;;-143.76;100.00;61248.72;5006289;28;20533;-76
2022/04/15 15:47:35;;;;;;;5.60;3.47;;;;;;;-143.76;100.00;61248.72;5006035;28;20228;-76
2022/04/15 15:50:00;;;;;;;3.03;2.73;;;;;;;-143.76;100.00;61248.72;5006251;28;20197;-76
2022/04/15 15:52:26;;;;;;;3.13;2.93;;;;;;;-143.76;100.00;61248.72;5006369;28;20229;-75
2022/04/15 15:54:51;;;;;;;3.87;3.57;;;;;;;-143.76;100.00;61248.72;5006011;28;20564;-75
2022/04/15 15:57:17;;;;;;;3.50;3.00;;;;;;;-143.76;100.00;61248.72;5004278;28;20316;-76
2022/04/15 15:59:42;;;;;;;3.10;2.90;;;;;;;-143.76;100.00;61248.72;5002289;28;20290;-74
2022/04/15 16:02:11;;;;;;;4.00;3.70;;;;;;;-143.76;100.00;61248.72;4985113;28;20189;-75
2022/04/15 16:04:36;;;;;;;3.93;3.37;;;;;;;-143.76;100.00;61248.72;5002409;28;20627;-75
2022/04/15 16:07:02;;;;;;;3.90;3.60;;;;;;;-143.76;100.00;61248.72;5003553;28;21048;-72
2022/04/15 16:09:27;;;;;;;4.27;3.87;;;;;;;-143.76;100.00;61248.72;5005024;28;20216;-74
2022/04/15 16:11:53;;;;;;;3.40;3.10;;;;;;;-143.76;100.00;61248.72;5002183;28;20244;-73
2022/04/15 16:14:18;;;;;;;4.60;3.03;;;;;;;-143.76;100.00;61248.72;4994898;28;20231;-74
2022/04/15 16:16:43;;;;;;;4.90;3.30;;;;;;;-143.76;100.00;61248.72;5005172;28;20287;-74
2022/04/15 16:19:09;;;;;;;3.13;2.83;;;;;;;-143.76;100.00;61248.72;5000827;28;20250;-73
2022/04/15 16:21:38;;;;;;;3.10;2.80;;;;;;;-143.76;100.00;61248.72;5004516;28;20695;-74
2022/04/15 16:24:07;;;;;;;2.60;2.40;;;;;;;-143.76;100.00;61248.72;5003114;28;20463;-74
2022/04/15 16:26:32;;;;;;;3.20;2.83;;;;;;;-143.76;100.00;61248.72;5002002;28;20515;-74
2022/04/15 16:28:58;;;;;;;3.40;3.10;;;;;;;-143.76;100.00;61248.72;4992377;28;21004;-73
2022/04/15 16:31:23;;;;;;;2.97;2.60;;;;;;;-143.76;100.00;61248.72;5000584;28;20204;-74
2022/04/15 16:33:49;;;;;;;5.50;3.03;;;;;;;-143.76;100.00;61248.72;5001972;28;20282;-73
2022/04/15 16:36:15;;;;;;;3.50;2.57;;;;;;;-143.76;100.00;61248.72;5000505;28;20502;-72
2022/04/15 16:38:43;;;;;;;3.23;3.03;;;;;;;-143.76;100.00;61248.72;5003467;28;20204;-73
2022/04/15 16:41:10;;;;;;;4.03;3.73;;;;;;;-143.76;100.00;61248.72;5003229;28;20205;-74
2022/04/15 16:43:35;;;;;;;4.10;3.13;;;;;;;-143.76;100.00;61248.72;5002037;28;20445;-75
2022/04/15 16:46:01;;;;;;;3.60;3.30;;;;;;;-143.76;100.00;61248.72;5000648;28;20491;-73
2022/04/15 16:48:26;;;;;;;3.43;3.23;;;;;;;-143.76;100.00;61248.72;5004468;28;20236;-74
2022/04/15 16:50:52;;;;;;;3.50;3.03;;;;;;;-143.76;100.00;61248.72;5002134;28;20212;-74
2022/04/15 16:53:17;;;;;;;3.90;3.60;;;;;;;-143.76;100.00;61248.72;5000870;28;20203;-74
2022/04/15 16:58:40;;;;;;;3.40;2.70;;;;;;;-143.76;100.00;61248.72;4995974;28;22008;-74
2022/04/15 17:01:13;;;;;;;5.13;3.63;;;;;;;-143.76;100.00;61248.72;5003303;28;20513;-74
2022/04/15 17:03:40;;;;;;;3.13;2.70;;;;;;;-143.76;100.00;61248.72;5001129;28;20569;-74
2022/04/15 17:06:05;;;;;;;4.10;3.30;;;;;;;-143.76;100.00;61248.72;5002113;28;20468;-74
2022/04/15 17:08:31;;;;;;;3.70;3.40;;;;;;;-143.76;100.00;61248.72;5002848;28;20497;-74
2022/04/15 17:11:01;;;;;;;3.83;3.53;;;;;;;-143.76;100.00;61248.72;5001690;28;20201;-74
2022/04/15 17:13:32;;;;;;;3.43;3.13;;;;;;;-143.76;100.00;61248.72;5002447;28;20890;-75
2022/04/15 17:16:03;;;;;;;6.30;5.43;;;;;;;-143.76;100.00;61248.72;5002972;28;20458;-75
2022/04/15 17:18:29;;;;;;;4.17;3.77;;;;;;;-143.76;100.00;61248.72;4999970;28;20469;-75
2022/04/15 17:20:55;;;;;;;4.63;3.60;;;;;;;-143.76;100.00;61248.72;5003731;28;20446;-74
2022/04/15 17:23:21;;;;;;;4.47;3.23;;;;;;;-143.76;100.00;61248.72;5003610;28;20467;-74
2022/04/15 17:25:48;;;;;;;4.67;4.20;;;;;;;-143.76;100.00;61248.72;5001166;28;20484;-76
2022/04/15 17:28:16;;;;;;;4.30;3.90;;;;;;;-143.76;100.00;61248.72;5000622;28;20259;-74
2022/04/15 17:30:42;;;;;;;4.72;4.32;;;;;;;-143.76;100.00;61248.72;5000404;28;20475;-75
2022/04/15 17:33:07;;;;;;;5.77;4.57;;;;;;;-143.76;100.00;61248.72;5002963;28;20210;-75
2022/04/15 17:35:32;;;;;;;4.23;3.73;;;;;;;-143.76;100.00;61248.72;5001433;28;20246;-75
2022/04/15 17:37:58;;;;;;;3.93;3.50;;;;;;;-143.76;100.00;61248.72;4999901;28;20224;-75
2022/04/15 17:40:24;;;;;;;6.97;3.70;;;;;;;-143.76;100.00;61248.72;5002112;28;20206;-73
2022/04/15 17:42:49;;;;;;;4.10;3.70;;;;;;;-143.76;100.00;61248.72;5003129;28;20208;-73
2022/04/15 17:45:15;;;;;;;4.57;4.17;;;;;;;-143.76;100.00;61248.72;4999391;28;20219;-73
2022/04/15 17:47:40;;;;;;;5.30;3.97;;;;;;;-143.76;100.00;61248.72;5000588;28;20222;-75
2022/04/15 17:50:06;;;;;;;7.23;4.60;;;;;;;-143.76;100.00;61248.72;5002533;28;20212;-74
2022/04/15 17:52:32;;;;;;;4.93;4.10;;;;;;;-143.76;100.00;61248.72;5001691;28;20240;-74
2022/04/15 17:54:58;;;;;;;5.13;4.73;;;;;;;-143.76;100.00;61248.72;5000990;28;20539;-74
2022/04/15 17:57:24;;;;;;;4.40;4.10;;;;;;;-143.76;100.00;61248.72;5002363;28;20320;-74
2022/04/15 17:59:49;;;;;;;4.67;4.27;;;;;;;-143.76;100.00;61248.72;5002088;28;20202;-75
2022/04/15 18:02:15;;;;;;;4.77;3.73;;;;;;;-143.76;100.00;61248.72;5000495;28;20462;-74
2022/04/15 18:04:41;;;;;;;4.50;4.10;;;;;;;-143.76;100.00;61248.72;4999503;28;20221;-74
2022/04/15 18:07:06;;;;;;;3.93;3.63;;;;;;;-143.76;100.00;61248.72;4999563;28;20236;-74
2022/04/15 18:09:32;;;;;;;3.20;3.00;;;;;;;-143.76;100.00;61248.72;5002679;28;20250;-74
2022/04/15 18:11:57;;;;;;;4.87;3.90;;;;;;;-143.76;100.00;61248.72;5000098;28;20686;-74
2022/04/15 18:14:27;;;;;;;3.97;3.67;;;;;;;-143.76;100.00;61248.72;5000123;28;20205;-74
2022/04/15 18:16:55;;;;;;;4.10;3.60;;;;;;;-143.76;100.00;61248.72;5003233;28;20224;-74
2022/04/15 18:19:21;;;;;;;4.93;4.07;;;;;;;-143.76;100.00;61248.72;5001796;28;20851;-75
2022/04/15 18:21:47;;;;;;;4.60;4.03;;;;;;;-143.76;100.00;61248.72;4982223;28;20250;-74
2022/04/15 18:24:14;;;;;;;4.77;3.47;;;;;;;-143.76;100.00;61248.72;5000066;28;20923;-74
2022/04/15 18:26:42;;;;;;;4.30;3.90;;;;;;;-143.76;100.00;61248.72;5001051;28;20506;-76
2022/04/15 18:29:08;;;;;;;4.20;3.87;;;;;;;-143.76;100.00;61248.72;4999551;28;20514;-75
2022/04/15 18:31:35;;;;;;;4.17;3.80;;;;;;;-143.76;100.00;61248.72;4983320;28;20465;-74
2022/04/15 18:34:02;;;;;;;6.50;4.07;;;;;;;-143.76;100.00;61248.72;5001070;28;20544;-73
2022/04/15 18:36:28;;;;;;;4.40;4.00;;;;;;;-143.76;100.00;61248.72;5001316;28;20467;-74
2022/04/15 18:38:53;;;;;;;4.20;3.90;;;;;;;-143.76;100.00;61248.72;5002042;28;20463;-74
2022/04/15 18:41:19;;;;;;;4.27;3.67;;;;;;;-143.76;100.00;61248.72;5000555;28;20575;-74
2022/04/15 18:43:46;;;;;;;5.20;4.37;;;;;;;-143.76;100.00;61248.72;5007400;28;20243;-74
2022/04/15 18:46:12;;;;;;;5.30;4.90;;;;;;;-143.76;100.00;61248.72;4987473;28;20229;-74
2022/04/15 18:54:07;;;;;;;4.73;4.10;;;;;;;-143.76;100.00;61248.72;5006034;28;21195;-74
2022/04/15 18:56:32;;;;;;;3.83;3.43;;;;;;;-143.76;100.00;61248.72;5004071;28;20557;-74
2022/04/15 18:58:58;;;;;;;4.27;3.80;;;;;;;-143.76;100.00;61248.72;5005024;28;20452;-75
2022/04/15 19:01:25;;;;;;;4.80;3.70;;;;;;;-143.76;100.00;61248.72;5004940;28;20203;-74
2022/04/15 19:03:51;;;;;;;4.73;3.37;;;;;;;-143.76;100.00;61248.72;5004969;28;20262;-75
2022/04/15 19:06:17;;;;;;;4.00;3.67;;;;;;;-143.76;100.00;61248.72;5004031;28;20492;-74
2022/04/15 19:08:44;;;;;;;7.67;4.00;;;;;;;-143.76;100.00;61248.72;5006253;28;20294;-74
2022/04/15 19:11:11;;;;;;;4.50;4.10;;;;;;;-143.76;100.00;61248.72;4989408;28;20943;-74
2022/04/15 19:13:37;;;;;;;5.60;4.60;;;;;;;-143.76;100.00;61248.72;5004165;28;20469;-74
2022/04/15 19:16:03;;;;;;;4.13;3.83;;;;;;;-143.76;100.00;61248.72;5006192;28;20470;-74
2022/04/15 19:18:29;;;;;;;3.57;3.37;;;;;;;-143.76;100.00;61248.72;5004709;28;20465;-74
2022/04/15 19:20:55;;;;;;;6.43;3.00;;;;;;;-143.76;100.00;61248.72;5005128;28;20450;-74
2022/04/15 19:23:20;;;;;;;4.30;3.30;;;;;;;-143.76;100.00;61248.72;5006998;28;20203;-74
2022/04/15 19:25:46;;;;;;;4.17;3.77;;;;;;;-143.76;100.00;61248.72;5005838;28;20482;-74
2022/04/15 19:28:12;;;;;;;4.33;4.03;;;;;;;-143.76;100.00;61248.72;5005212;28;20363;-74
2022/04/15 19:30:39;;;;;;;4.47;3.77;;;;;;;-143.76;100.00;61248.72;5007537;28;20258;-74
2022/04/15 19:33:04;;;;;;;4.25;3.95;;;;;;;-143.76;100.00;61248.72;5004583;28;20486;-74
2022/04/15 19:35:31;;;;;;;3.57;3.27;;;;;;;-143.76;100.00;61248.72;4995194;28;20862;-74
2022/04/15 19:37:56;;;;;;;4.60;3.90;;;;;;;-143.76;100.00;61248.72;5004253;28;20211;-74
2022/04/15 19:40:22;;;;;;;4.00;3.70;;;;;;;-143.76;100.00;61248.72;5005089;28;20522;-74
2022/04/15 19:42:47;;;;;;;3.97;3.03;;;;;;;-143.76;100.00;61248.72;5005143;28;20279;-74
2022/04/15 19:45:13;;;;;;;4.47;4.07;;;;;;;-143.76;100.00;61248.72;5006860;28;20233;-74
2022/04/15 19:47:38;;;;;;;3.67;3.37;;;;;;;-143.76;100.00;61248.72;4994359;28;20216;-73
2022/04/15 19:50:04;;;;;;;5.03;4.70;;;;;;;-143.76;100.00;61248.72;4998929;28;20254;-74
2022/04/15 19:52:30;;;;;;;3.30;3.10;;;;;;;-143.76;100.00;61248.72;4988231;28;20808;-76
2022/04/15 19:54:55;;;;;;;4.77;3.60;;;;;;;-143.76;100.00;61248.72;5005187;28;20471;-75
2022/04/15 20:02:50;;;;;;;7.37;4.20;;;;;;;-143.76;100.00;61248.72;5004836;28;20454;-73
2022/04/15 20:05:17;;;;;;;4.80;4.40;;;;;;;-143.76;100.00;61248.72;5005074;28;20485;-74
2022/04/15 20:07:43;;;;;;;4.37;3.97;;;;;;;-143.76;100.00;61248.72;5005750;28;20703;-75
2022/04/15 20:10:08;;;;;;;5.23;4.30;;;;;;;-143.76;100.00;61248.72;5005144;28;20472;-74
2022/04/15 20:12:35;;;;;;;4.40;3.37;;;;;;;-143.76;100.00;61248.72;5005277;28;20309;-74
2022/04/15 20:15:00;;;;;;;4.40;4.00;;;;;;;-143.76;100.00;61248.72;5006741;28;20298;-73
2022/04/15 20:17:27;;;;;;;4.63;4.23;;;;;;;-143.76;100.00;61248.72;5004080;28;20568;-74
2022/04/15 20:19:55;;;;;;;4.23;3.83;;;;;;;-143.76;100.00;61248.72;5003681;28;20603;-74
2022/04/15 20:22:25;;;;;;;6.53;5.03;;;;;;;-143.76;100.00;61248.72;5007249;28;20458;-74
2022/04/15 20:24:53;;;;;;;5.27;4.70;;;;;;;-143.76;100.00;61248.72;5006079;28;20469;-74
2022/04/15 20:27:18;;;;;;;5.37;4.97;;;;;;;-143.76;100.00;61248.72;5005178;28;20475;-73
2022/04/15 20:29:44;;;;;;;6.30;3.97;;;;;;;-143.76;100.00;61248.72;5004749;28;20464;-75
2022/04/15 20:32:09;;;;;;;4.60;4.20;;;;;;;-143.76;100.00;61248.72;5004857;28;20566;-74
2022/04/15 20:34:35;;;;;;;5.77;4.27;;;;;;;-143.76;100.00;61248.72;5004254;28;20214;-74
2022/04/15 20:37:01;;;;;;;4.57;3.93;;;;;;;-143.76;100.00;61248.72;5006043;28;20229;-74
2022/04/15 20:39:26;;;;;;;4.13;3.83;;;;;;;-143.76;100.00;61248.72;5002669;28;20213;-75
2022/04/15 20:41:53;;;;;;;4.43;4.10;;;;;;;-143.76;100.00;61248.72;5004726;28;20814;-72
2022/04/15 20:44:18;;;;;;;3.97;3.57;;;;;;;-143.76;100.00;61248.72;5004461;28;20203;-74
2022/04/15 20:46:44;;;;;;;5.30;4.80;;;;;;;-143.76;100.00;61248.72;5006910;28;20497;-72
2022/04/15 20:51:54;;;;;;;4.77;4.37;;;;;;;-143.76;100.00;61248.72;5004689;28;20198;-73
2022/04/15 20:54:19;;;;;;;4.30;3.90;;;;;;;-143.76;100.00;61248.72;5005341;28;20468;-73
2022/04/15 20:56:45;;;;;;;4.97;4.20;;;;;;;-143.76;100.00;61248.72;5005009;28;20303;-74
2022/04/15 20:59:10;;;;;;;5.03;4.63;;;;;;;-143.76;100.00;61248.72;5003392;28;20220;-73
2022/04/15 21:01:36;;;;;;;5.00;4.27;;;;;;;-143.76;100.00;61248.72;4997179;28;20200;-73
2022/04/15 21:04:01;;;;;;;5.07;4.70;;;;;;;-143.76;100.00;61248.72;4998996;28;20701;-73
2022/04/15 21:06:27;;;;;;;5.37;4.30;;;;;;;-143.76;100.00;61248.72;5004747;28;20256;-73
2022/04/15 21:08:53;;;;;;;6.47;5.90;;;;;;;-143.76;100.00;61248.72;5005956;28;21039;-74
2022/04/15 21:11:20;;;;;;;5.13;4.35;;;;;;;-143.76;100.00;61248.72;4988668;28;20255;-73
2022/04/15 21:13:46;;;;;;;6.57;5.13;;;;;;;-143.76;100.00;61248.72;5017360;28;20184;-74
2022/04/15 21:16:14;;;;;;;7.80;5.60;;;;;;;-143.76;100.00;61248.72;5017572;28;20213;-74
2022/04/15 21:18:39;;;;;;;7.43;5.47;;;;;;;-143.76;100.00;61248.72;5016381;28;20208;-74
2022/04/15 21:21:05;;;;;;;5.13;4.63;;;;;;;-143.76;100.00;61248.72;5009565;28;20315;-75
2022/04/15 21:23:32;;;;;;;5.87;4.70;;;;;;;-143.76;100.00;61248.72;5000055;28;20239;-74
2022/04/15 21:25:58;;;;;;;5.25;4.75;;;;;;;-143.76;100.00;61248.72;4994225;28;20227;-74
2022/04/15 21:28:23;;;;;;;5.00;4.60;;;;;;;-143.76;100.00;61248.72;5003898;28;20204;-74
2022/04/15 21:30:48;;;;;;;6.07;4.70;;;;;;;-143.76;100.00;61248.72;5003113;28;20338;-74
2022/04/15 21:33:14;;;;;;;5.93;5.43;;;;;;;-143.76;100.00;61248.72;4999667;28;20863;-74
2022/04/15 21:35:41;;;;;;;5.57;5.07;;;;;;;-143.76;100.00;61248.72;5003005;28;20307;-75
2022/04/15 21:38:12;;;;;;;7.20;4.53;;;;;;;-143.76;100.00;61248.72;5005782;28;20295;-74
2022/04/15 21:40:39;;;;;;;5.68;5.05;;;;;;;-143.76;100.00;61248.72;4992795;28;20237;-73
2022/04/15 21:43:06;;;;;;;4.80;4.38;;;;;;;-143.76;100.00;61248.72;5003047;28;20620;-73
2022/04/15 21:45:31;;;;;;;4.32;4.03;;;;;;;-143.76;100.00;61248.72;5002974;28;20232;-74
2022/04/15 21:47:56;;;;;;;5.43;4.60;;;;;;;-143.76;100.00;61248.72;4997597;28;20201;-75
2022/04/15 21:52:30;;;;;;;5.40;4.90;;;;;;;-143.76;100.00;61248.72;4966608;28;20823;-72
2022/04/15 21:53:07;;;;;;;5.05;4.65;;;;;;;-143.76;100.00;61248.72;4977551;28;20202;-72
2022/04/15 21:55:33;;;;;;;5.03;4.60;;;;;;;-143.76;100.00;61248.72;5004176;28;20536;-72
2022/04/15 21:57:58;;;;;;;6.30;4.10;;;;;;;-143.76;100.00;61248.72;5004553;28;20215;-73
2022/04/15 22:00:45;;;;;;;4.67;4.27;;;;;;;-143.76;100.00;61248.72;5002926;28;20210;-73
2022/04/15 22:03:11;;;;;;;4.53;4.22;;;;;;;-143.76;100.00;61248.72;5001933;28;20229;-74
2022/04/15 22:05:37;;;;;;;5.10;4.65;;;;;;;-143.76;100.00;61248.72;5003506;28;20259;-73
2022/04/15 22:08:11;;;;;;;3.90;3.58;;;;;;;-143.76;100.00;61248.72;5004526;28;20202;-72
2022/04/15 22:10:37;;;;;;;6.37;5.80;;;;;;;-143.76;100.00;61248.72;5003626;28;20210;-74
2022/04/15 22:13:02;;;;;;;6.77;6.07;;;;;;;-143.76;100.00;61248.72;5004471;28;20214;-73
2022/04/15 22:15:28;;;;;;;7.13;6.43;;;;;;;-143.76;100.00;61248.72;5002698;28;20303;-74
2022/04/15 22:17:53;;;;;;;4.77;4.17;;;;;;;-143.76;100.00;61248.72;5003336;28;20214;-74
2022/04/15 22:20:19;;;;;;;5.90;5.27;;;;;;;-143.76;100.00;61248.72;5005132;28;20733;-74
2022/04/15 22:22:46;;;;;;;6.50;5.50;;;;;;;-143.76;100.00;61248.72;4984226;28;20199;-73
2022/04/15 22:25:12;;;;;;;7.45;6.00;;;;;;;-143.76;100.00;61248.72;4999791;28;20223;-74
2022/04/15 22:27:38;;;;;;;9.40;6.80;;;;;;;-143.76;100.00;61248.72;5002079;28;20687;-74
2022/04/15 22:30:05;;;;;;;6.50;5.83;;;;;;;-143.76;100.00;61248.72;4986154;28;20278;-74
2022/04/15 22:32:31;;;;;;;7.25;6.35;;;;;;;-143.76;100.00;61248.72;5002959;28;20470;-73
2022/04/15 22:34:57;;;;;;;8.17;7.37;;;;;;;-143.76;100.00;61248.72;5006943;28;20197;-73
2022/04/15 22:37:24;;;;;;;7.50;6.90;;;;;;;-143.76;100.00;61248.72;5001760;28;20210;-74
2022/04/15 22:39:50;;;;;;;8.93;7.60;;;;;;;-143.76;100.00;61248.72;5005582;28;20226;-74
2022/04/15 22:42:16;;;;;;;8.20;7.40;;;;;;;-143.76;100.00;61248.72;5003220;28;20202;-74
2022/04/15 22:44:44;;;;;;;9.63;8.10;;;;;;;-143.76;100.00;61248.72;5002069;28;20656;-74
2022/04/15 22:47:32;;;;;;;9.15;7.28;;;;;;;-143.76;100.00;61248.72;5003717;28;20550;-73
2022/04/15 22:49:58;;;;;;;7.90;7.13;;;;;;;-143.76;100.00;61248.72;5005404;28;20254;-74
2022/04/15 22:52:23;;;;;;;6.93;6.23;;;;;;;-143.76;100.00;61248.72;4999884;28;20202;-73
2022/04/15 22:57:34;;;;;;;9.20;8.30;;;;;;;-143.76;100.00;61248.72;5002434;28;20532;-74
2022/04/15 22:59:59;;;;;;;8.40;7.60;;;;;;;-143.76;100.00;61248.72;5003411;28;20234;-74
2022/04/15 23:02:25;;;;;;;8.20;6.97;;;;;;;-143.76;100.00;61248.72;4988823;28;20215;-74
2022/04/15 23:04:51;;;;;;;8.35;7.40;;;;;;;-143.76;100.00;61248.72;5001418;28;20222;-73
2022/04/15 23:07:16;;;;;;;8.47;7.63;;;;;;;-143.76;100.00;61248.72;5003959;28;20711;-73
2022/04/15 23:09:42;;;;;;;7.70;7.00;;;;;;;-143.76;100.00;61248.72;5001768;28;20210;-74
2022/04/15 23:12:07;;;;;;;8.00;7.10;;;;;;;-143.76;100.00;61248.72;5002473;28;20209;-73
2022/04/15 23:14:33;;;;;;;10.13;7.83;;;;;;;-143.76;100.00;61248.72;5001416;28;20633;-74
2022/04/15 23:17:00;;;;;;;8.27;7.47;;;;;;;-143.76;100.00;61248.72;5001197;28;20222;-73
2022/04/15 23:19:26;;;;;;;7.72;7.00;;;;;;;-143.76;100.00;61248.72;5001457;28;20241;-73
2022/04/15 23:21:53;;;;;;;7.57;6.87;;;;;;;-143.76;100.00;61248.72;5001231;28;20226;-73
2022/04/15 23:24:22;;;;;;;8.88;7.40;;;;;;;-143.76;100.00;61248.72;5001356;28;20559;-74
2022/04/15 23:26:47;;;;;;;6.38;5.75;;;;;;;-143.76;100.00;61248.72;5004294;28;20250;-75
2022/04/15 23:29:14;;;;;;;7.15;6.50;;;;;;;-143.76;100.00;61248.72;5003638;28;20306;-73
2022/04/15 23:31:39;;;;;;;7.57;5.90;;;;;;;-143.76;100.00;61248.72;5008359;28;20616;-74
2022/04/15 23:34:05;;;;;;;6.87;6.23;;;;;;;-143.76;100.00;61248.72;5003816;28;20473;-73
2022/04/15 23:36:30;;;;;;;7.53;5.73;;;;;;;-143.76;100.00;61248.72;5007242;28;20223;-73
2022/04/15 23:38:55;;;;;;;8.80;5.93;;;;;;;-143.76;100.00;61248.72;5002024;28;20654;-74
2022/04/15 23:41:23;;;;;;;7.70;6.10;;;;;;;-143.76;100.00;61248.72;5005233;28;20215;-73